CheckWX is a tool to help pilots better visualize weather data.  It is not intended as a substitute for an official pre-flight weather briefing.

21:11:01 UTC

EGTK METAR
Oxford (Kidlington) Airport
Kidlington, United Kingdom
Current

2 hours ago

EGTK 201920Z 03004KT CAVOK 17/08 Q1027
Observed
Apr-20 @ 19:20 UTC
Wind
  • 030° at 4 KTS
Visibility
10,000+ meters
Flight Rules
VFR
Cloud Levels
  • Clear skies
Temperature
17°C / 63°F
Dewpoint
C / 46°F
Humidity
56%
Altimeter
30.32" Hg
Pressure
1026.92 hPa
Previous

2 hours ago

EGTK 201850Z 03004KT CAVOK 19/08 Q1027
Observed
Apr-20 @ 18:50 UTC
Wind
  • 030° at 4 KTS
Visibility
10,000+ meters
Flight Rules
VFR
Cloud Levels
  • Clear skies
Temperature
19°C / 66°F
Dewpoint
C / 46°F
Humidity
49%
Altimeter
30.32" Hg
Pressure
1026.92 hPa
Previous

3 hours ago

EGTK 201820Z 03003KT CAVOK 20/08 Q1027
Observed
Apr-20 @ 18:20 UTC
Wind
  • 030° at 3 KTS
Visibility
10,000+ meters
Flight Rules
VFR
Cloud Levels
  • Clear skies
Temperature
20°C / 68°F
Dewpoint
C / 46°F
Humidity
46%
Altimeter
30.32" Hg
Pressure
1026.92 hPa